• METAR

    LHBP Budapest Liszt Ferenc repülőtér METAR

    LHBP 290930Z 27007KT 230V310 CAVOK 05/M07 Q1028 NOSIG

    QNH légnyomás:1028hpa
    Hőmérséklet/temperature: 5°C
    Harmatpont/Dew Point Temp: -7°C

    LHDC Debreceni repülőtér METAR

    LHDC 290915Z AUTO 25003KT 210V290 CAVOK 02/M04 Q1027 NOSIG

    QNH légnyomás:1027hpa
    Hőmérskélet/temperature: 2°C
    Harmatpont/Dew Point Temp: -4°C

    LHPR Győr-pér repülőtér METAR

    LHPR 290915Z AUTO 24007KT 220V280 9999 FEW042 04/M01 Q1028 NOSIG

    QNH légnyomás:1028hpa
    Hőmérskélet/temperature: 4°C
    Harmatpont/Dew Point Temp: -1°C

    lhsm Sármellék repülőtér METAR

    LHSM 290915Z AUTO 35004KT 290V040 9000 NSC 06/M02 Q1029 NOSIG

    QNH légnyomás:1029hpa
    Hőmérskélet/temperature: 6°C
    Harmatpont/Dew Point Temp: -2°C

    lhpp Pécs-pogány repülőtér METAR

    LHPP 290915Z AUTO 35005KT 300V030 CAVOK 04/M05 Q1030

    QNH légnyomás:1030hpa
    Hőmérskélet/temperature: 4°C
    Harmatpont/Dew Point Temp: -5°C

    LHKE Kecskemét repülőtér METAR

    LHKE 290915Z 29006KT 250V320 CAVOK 04/M06 Q1028 NOSIG RMK BLU

    QNH légnyomás:1028hpa
    Hőmérskélet/temperature: 4°C
    Harmatpont/Dew Point Temp: -6°C

    LHSN Szolnok repülőtér METAR

    LHSN 290915Z 30006KT 280V340 CAVOK 03/M05 Q1028 NOSIG RMK BLU

    QNH légnyomás:1028hpa
    Hőmérskélet/temperature: 3°C
    Harmatpont/Dew Point Temp: -5°C

    LHUD szeged repülőtér METAR

    LHUD 032345Z 35004KT CAVOK 18/13 Q1019

    QNH légnyomás:1019hpa
    Hőmérskélet/temperature: 18°C
    Harmatpont/Dew Point Temp: 13°C

  • TÉRKÉPEK

    Felhőkép

    Széltérkép

    Hőtérkép

    radarkép

    map

    map

  • Műholdképek

    Magyarország műholdkép

    Europa műholdkép

    Europa szinoptikus térkép

  • ELTE ELŐREJELZÉS (2 NAP LHBP)

    2 napos légnyomás előrejelzés Budapest LHBP

    2 napos szél előrejelzés Budapest LHBP

    2 napos termik trigger előrejelzés Budapest LHBP

    2 napos felhőzet előrejelzés Budapest LHBP

    2 napos thermal index profile előrejelzés Budapest LHBP

    2 napos átlag emelés előrejelzés Budapest LHBP

    2 napos felhő alap előrejelzés Budapest LHBP

    2 napos hőmérséklet advekció előrejelzés Budapest LHBP

  • VILLÁMRADAR

  • ELŐREJELZÉS

  • WINDFINDER ELŐREJELZÉS

  • RIASZTÁS - VÉSZJELZÉS

Repülésmeteorológia, aktuális időjárási helyzet és előrejelzés

Repülésmeteorológia, várható időjárás jelentések, előrejelzések és riasztások. METAR, TAF adatok, aktuális időjárás helyzetek és térképek.

A meteorológia kialakulásában és fejlődésében kiemelt szerep jutott a repülésnek, illetve a repülés technikai fejlődésének. A repülésmeteorológia elsődlegesen a repülés biztonságát, másodlagosan a repülés gazdaságosságát hivatott szolgálni. Eleinte a katonai repülőgépeknek, később a polgári repülésnek, ma már a sportrepülő pilótáknak, és a mezőgazdasági pilótáknak is egyaránt szükségük van a naprakész meteorológiai információkra.

Repülésmeteorológia oldalunkon összegyűjtöttük a legnépszerűbb és legjobb időjárás oldalak hivatkozásait, hogy repülés előtt vagy akár közben minden fontos forrást egyszerűen és gyorsan megtalálj. Magyarország várható időjárása, légállapoti diagramok, termik előrejelzés, METAR adatok, vészjelzések és figyelmeztetések. A képernyő szélén közvetlenül pedig pozíciód aktuális időjárási paramétereit is megtalálod.

JOGI NYILATKOZAT

Az oldal használatával a látogató elfogadja az alábbi felhasználási feltételeket:

Az oldalon feltüntetett repülésmeteorológia információkat mindenki csak saját felelősségre használhatja. A feltüntetett külső forrásokból származó információk pontosságáért és tartalmáért, valamint az esetlegesen ebből adódó bármilyen káresemény kapcsán a FLYTIME.HU nem vállal felelősséget!